Terminal Aerodrome Forecast
Issued by NWS

Current Version | Previous Version | Text Only | Print | Product List | Glossary Off
Versions: 1 2 3 4 5 6 7 8 9 10 11 12 13 14 15 16 17 18 19 20 21 22 23 24 25 26 27 28 29 30 31 32 33

000
FTUS41 KRNK 241136
TAFLWB
TAF
KLWB 241136Z 2412/2512 30005KT P6SM SKC
     FM241400 29008G16KT P6SM SCT250
     FM241900 28007KT P6SM BKN250
     FM242300 VRB03KT P6SM SCT100 BKN250
     FM250800 05004KT P6SM BKN090 OVC200=

USA.gov is the U.S. government's official web portal to all federal, state and local government web resources and services.